Pagrindinis puslapis
METAR-TAF:

METAR-TAF

Oro uostai :

Pilot Point, Aliaska, Jungtinės Amerikos Valstijos

platuma: 57-34-49N, ilguma: 157-34-19W, Aukštis: 17 m

Dabartinis oras

Ataskaita buvo paskelbta 1 valandą ir 6 minutes, ne 08:56 UTC
Vėjas 4 kt iš Šiaurės
Temperatūra -12°C
Drėgmė 72%
Slėgis 997 hPa
Matomumas: 16.1 km
Apsiniaukę ne aukštis 6500 ft

METAR: PAPN 260856Z AUTO 36004KT 10SM OVC065 M12/M16 A2945 RMK AO2 SLP987 T11221156 53006 PWINO FZRANO $

Laikas: 01:02 (10:02 UTC)


TAF: trūkstamas

Orai ataskaitas ir orų prognozės (METAR, TAF).

turimą stotys yra geltonos ir raudonos taškus žemėlapyje.

Perkelti pele per norėdami pamatyti stoties vardą.

Tada spustelėkite, norėdami matyti oro stebėjimo ir prognozės.

Norėdami pakeisti žemėlapį: spustelėkite ant žalios mygtukų su juodo kryžiaus žemyn,; žalią mygtuką su brūkšneliu, jei norite nutolinti; arba žalių rodyklių gretimoms žemėlapius.


METAR-TAF: